Terminal Aerodrome Forecast
Issued by NWS Grand Rapids, MI

Home | Current Version | Previous Version | Text Only | Print | Product List | Glossary On
Versions: 1 2 3 4 5 6 7 8 9 10 11 12 13 14 15 16 17 18 19 20
000
FTUS43 KGRR 041120
TAFGRR
TAF
KGRR 041120Z 0412/0512 00000KT 5SM HZ FEW200 BKN250
     FM041400 26005KT P6SM SCT250
     FM050500 00000KT P6SM SKC=

USA.gov is the U.S. government's official web portal to all federal, state and local government web resources and services.